Airport Name : Uberaba

Other Name : Uberaba

ICAO : SBUR

IATA : UBA

FAA :

Latitude : -19.765

Longitude : -47.964778

Country : Brazil

Local Date and Time : 2/24/2018 1:10:00 PM

 

TAF (Terminal Aerodrome Forecast)

 

METAR (METeorological Aerodrome Report)

SBUR 241500Z 35006KT 9999 SCT025 FEW040TCU 26/19 Q1017

SBUR 241300Z 08004KT 9999 SCT025 25/19 Q1018